createdAt,value
2023-02-28T00:00:20.048Z,15.55
2023-02-28T00:01:51.906Z,16.60
2023-02-28T00:03:23.638Z,16.00
2023-02-28T00:05:02.131Z,15.45
2023-02-28T00:06:33.884Z,15.05
2023-02-28T00:08:06.954Z,12.98
2023-02-28T00:09:38.706Z,11.90
2023-02-28T00:11:11.839Z,11.85
2023-02-28T00:12:43.630Z,13.98
2023-02-28T00:14:15.369Z,12.30
2023-02-28T00:15:47.108Z,12.05
2023-02-28T00:17:22.029Z,12.00
2023-02-28T00:18:53.726Z,11.52
2023-02-28T00:20:25.460Z,11.75
2023-02-28T00:21:57.369Z,13.02
2023-02-28T00:23:30.486Z,11.88
2023-02-28T00:25:02.219Z,10.50
2023-02-28T00:26:34.031Z,12.38
2023-02-28T00:28:05.832Z,13.35
2023-02-28T00:29:37.731Z,12.43
2023-02-28T00:31:09.495Z,12.25
2023-02-28T00:32:41.419Z,12.15
2023-02-28T00:34:13.158Z,13.60
2023-02-28T00:35:47.442Z,12.88
2023-02-28T00:37:19.362Z,12.98
2023-02-28T00:38:52.479Z,12.95
2023-02-28T00:40:24.251Z,11.50
2023-02-28T00:41:55.992Z,11.43
2023-02-28T00:43:27.708Z,11.05
2023-02-28T00:44:59.423Z,12.55
2023-02-28T00:46:31.174Z,11.32
2023-02-28T00:48:02.938Z,12.18
2023-02-28T00:49:34.782Z,12.27
2023-02-28T00:51:06.517Z,11.88
2023-02-28T00:52:38.195Z,11.80
2023-02-28T00:54:11.262Z,12.07
2023-02-28T00:55:42.927Z,12.13
2023-02-28T00:57:14.611Z,11.32
2023-02-28T00:58:46.254Z,10.77
2023-02-28T01:00:18.505Z,10.63
2023-02-28T01:01:50.177Z,10.90
2023-02-28T01:03:22.098Z,14.10
2023-02-28T01:04:53.783Z,11.40
2023-02-28T01:06:25.558Z,11.80
2023-02-28T01:07:57.259Z,12.25
2023-02-28T01:09:30.499Z,10.43
2023-02-28T01:11:09.035Z,10.52
2023-02-28T01:12:40.784Z,11.48
2023-02-28T01:14:14.030Z,12.05
2023-02-28T01:15:50.384Z,10.95
2023-02-28T01:17:22.124Z,11.90
2023-02-28T01:18:53.882Z,25.40
2023-02-28T01:20:25.615Z,18.73
2023-02-28T01:21:57.355Z,58.33
2023-02-28T01:23:29.094Z,40.67
2023-02-28T01:25:02.209Z,31.92
2023-02-28T01:26:33.954Z,36.80
2023-02-28T01:28:06.509Z,15.57
2023-02-28T01:29:38.258Z,33.45
2023-02-28T01:31:10.258Z,24.60
2023-02-28T01:32:41.946Z,18.70
2023-02-28T01:34:13.617Z,15.40
2023-02-28T01:35:45.379Z,12.65
2023-02-28T01:37:17.092Z,13.05
2023-02-28T01:38:48.880Z,12.27
2023-02-28T01:40:21.987Z,10.88
2023-02-28T01:41:53.718Z,13.32
2023-02-28T01:43:26.746Z,14.90
2023-02-28T01:45:01.165Z,12.88
2023-02-28T01:46:33.548Z,22.13
2023-02-28T01:48:06.771Z,14.77
2023-02-28T01:49:38.493Z,16.85
2023-02-28T01:51:11.986Z,12.75
2023-02-28T01:52:43.768Z,12.32
2023-02-28T01:54:16.856Z,11.82
2023-02-28T01:55:50.633Z,11.07
2023-02-28T01:57:23.754Z,14.38
2023-02-28T01:58:55.507Z,14.18
2023-02-28T02:00:30.477Z,13.07
2023-02-28T02:02:02.436Z,12.30
2023-02-28T02:03:34.558Z,10.63
2023-02-28T02:05:07.546Z,10.60
2023-02-28T02:06:45.487Z,12.73
2023-02-28T02:08:19.717Z,12.85
2023-02-28T02:10:03.585Z,13.43
2023-02-28T02:11:36.634Z,12.35
2023-02-28T02:13:21.089Z,14.65
2023-02-28T02:14:59.630Z,13.07
2023-02-28T02:16:38.485Z,13.32
2023-02-28T02:18:13.841Z,10.35
2023-02-28T02:20:17.781Z,10.95
2023-02-28T02:22:04.845Z,10.98
2023-02-28T02:24:09.939Z,10.38
2023-02-28T02:25:41.948Z,9.93
2023-02-28T02:27:21.937Z,10.80
2023-02-28T02:29:01.827Z,10.07
2023-02-28T02:30:50.534Z,10.07
2023-02-28T02:32:35.870Z,10.68
2023-02-28T02:34:37.438Z,11.30
2023-02-28T02:36:10.461Z,10.43
2023-02-28T02:37:43.941Z,9.73
2023-02-28T02:39:17.294Z,10.32
2023-02-28T02:40:52.269Z,10.02
2023-02-28T02:42:27.890Z,10.20
2023-02-28T02:44:02.652Z,9.68
2023-02-28T02:45:38.024Z,11.88
2023-02-28T02:47:10.970Z,10.93
2023-02-28T02:48:42.772Z,10.63
2023-02-28T02:50:18.034Z,11.65
2023-02-28T02:51:49.705Z,10.00
2023-02-28T02:53:23.690Z,9.75
2023-02-28T02:54:56.655Z,11.45
2023-02-28T02:56:29.952Z,11.00
2023-02-28T02:58:02.956Z,10.02
2023-02-28T02:59:34.689Z,11.00
2023-02-28T03:01:06.431Z,11.60
2023-02-28T03:02:38.263Z,10.65
2023-02-28T03:04:11.558Z,11.13
2023-02-28T03:05:47.054Z,9.52
2023-02-28T03:07:18.745Z,10.05
2023-02-28T03:08:50.723Z,9.82
2023-02-28T03:10:34.044Z,11.82
2023-02-28T03:12:05.849Z,10.38
2023-02-28T03:13:48.387Z,9.23
2023-02-28T03:15:21.619Z,9.60
2023-02-28T03:17:01.485Z,9.32
2023-02-28T03:18:36.574Z,10.02
2023-02-28T03:20:13.472Z,9.70
2023-02-28T03:21:48.269Z,10.95
2023-02-28T03:23:21.069Z,9.57
2023-02-28T03:24:55.869Z,9.23
2023-02-28T03:26:27.900Z,9.88
2023-02-28T03:28:06.073Z,9.35
2023-02-28T03:29:40.036Z,9.38
2023-02-28T03:31:15.735Z,8.80
2023-02-28T03:32:50.740Z,11.35
2023-02-28T03:34:25.757Z,10.77
2023-02-28T03:36:00.269Z,10.05
2023-02-28T03:37:35.635Z,11.23
2023-02-28T03:39:08.967Z,12.25
2023-02-28T03:40:43.025Z,14.10
2023-02-28T03:42:16.276Z,14.18
2023-02-28T03:43:50.798Z,10.80
2023-02-28T03:45:23.960Z,9.32
2023-02-28T03:46:58.096Z,10.10
2023-02-28T03:48:32.000Z,10.45
2023-02-28T03:50:07.405Z,11.45
2023-02-28T03:51:39.319Z,10.60
2023-02-28T03:53:14.122Z,10.88
2023-02-28T03:54:47.001Z,10.68
2023-02-28T03:56:19.852Z,9.80
2023-02-28T03:57:57.626Z,10.00
2023-02-28T03:59:30.193Z,10.15
2023-02-28T04:01:08.923Z,10.35
2023-02-28T04:02:40.706Z,10.50
2023-02-28T04:04:12.585Z,9.23
2023-02-28T04:05:51.839Z,10.15
2023-02-28T04:07:23.509Z,9.48
2023-02-28T04:08:56.745Z,10.38
2023-02-28T04:10:28.447Z,10.45
2023-02-28T04:12:00.410Z,10.27
2023-02-28T04:13:32.171Z,9.88
2023-02-28T04:15:04.443Z,10.18
2023-02-28T04:16:37.227Z,9.77
2023-02-28T04:18:09.005Z,9.88
2023-02-28T04:19:40.626Z,10.30
2023-02-28T04:21:12.543Z,10.13
2023-02-28T04:22:44.270Z,10.13
2023-02-28T04:24:18.395Z,9.73
2023-02-28T04:25:52.137Z,10.40
2023-02-28T04:27:23.899Z,9.82
2023-02-28T04:28:55.607Z,10.32
2023-02-28T04:30:27.260Z,11.18
2023-02-28T04:32:00.031Z,12.27
2023-02-28T04:33:32.394Z,10.23
2023-02-28T04:35:04.811Z,11.23
2023-02-28T04:36:36.481Z,11.73
2023-02-28T04:38:12.976Z,12.65
2023-02-28T04:39:46.095Z,12.23
2023-02-28T04:41:17.848Z,15.57
2023-02-28T04:42:49.657Z,48.38
2023-02-28T04:44:21.546Z,109.85
2023-02-28T04:45:53.424Z,45.85
2023-02-28T04:47:25.306Z,26.63
2023-02-28T04:48:57.090Z,71.53
2023-02-28T04:50:28.872Z,21.55
2023-02-28T04:52:00.766Z,18.38
2023-02-28T04:53:32.654Z,25.90
2023-02-28T04:55:07.084Z,17.10
2023-02-28T04:56:38.861Z,12.60
2023-02-28T04:58:10.636Z,12.18
2023-02-28T04:59:42.402Z,11.10
2023-02-28T05:01:19.269Z,12.20
2023-02-28T05:02:51.021Z,10.70
2023-02-28T05:04:22.931Z,11.07
2023-02-28T05:05:54.722Z,11.43
2023-02-28T05:07:26.555Z,12.95
2023-02-28T05:08:58.448Z,11.98
2023-02-28T05:10:31.619Z,12.13
2023-02-28T05:12:04.294Z,10.65
2023-02-28T05:13:36.905Z,12.80
2023-02-28T05:15:10.168Z,11.57
2023-02-28T05:16:41.939Z,12.07
2023-02-28T05:18:13.878Z,12.65
2023-02-28T05:19:45.813Z,11.30
2023-02-28T05:21:29.609Z,11.90
2023-02-28T05:23:01.599Z,11.52
2023-02-28T05:24:33.720Z,12.23
2023-02-28T05:26:09.490Z,12.20
2023-02-28T05:27:41.339Z,11.77
2023-02-28T05:29:13.202Z,12.57
2023-02-28T05:30:45.233Z,12.25
2023-02-28T05:32:17.059Z,11.48
2023-02-28T05:33:48.886Z,11.45
2023-02-28T05:35:20.606Z,11.60
2023-02-28T05:36:52.402Z,15.80
2023-02-28T05:38:24.280Z,13.68
2023-02-28T05:39:56.054Z,12.80
2023-02-28T05:41:29.585Z,12.43
2023-02-28T05:43:01.612Z,12.43
2023-02-28T05:44:33.417Z,11.60
2023-02-28T05:46:06.592Z,12.75
2023-02-28T05:47:38.664Z,11.95
2023-02-28T05:49:10.489Z,12.13
2023-02-28T05:50:43.645Z,13.52
2023-02-28T05:52:15.416Z,12.80
2023-02-28T05:53:48.107Z,12.70
2023-02-28T05:55:19.872Z,11.20
2023-02-28T05:57:01.960Z,11.02
2023-02-28T05:58:34.580Z,12.38
2023-02-28T06:00:26.083Z,12.63
2023-02-28T06:02:00.918Z,11.23
2023-02-28T06:03:45.928Z,11.32
2023-02-28T06:05:27.173Z,12.20
2023-02-28T06:06:59.263Z,12.45
2023-02-28T06:08:34.233Z,11.57
2023-02-28T06:10:07.156Z,12.57
2023-02-28T06:11:44.988Z,11.88
2023-02-28T06:13:20.727Z,13.05
2023-02-28T06:14:55.866Z,12.68
2023-02-28T06:19:42.618Z,13.45
2023-02-28T06:22:17.346Z,23.75
2023-02-28T06:36:43.374Z,17.10
2023-02-28T06:38:34.650Z,16.75
2023-02-28T06:40:21.165Z,16.15
2023-02-28T06:42:07.155Z,14.65
2023-02-28T06:43:47.954Z,15.57
2023-02-28T06:45:27.686Z,13.50
2023-02-28T06:46:59.569Z,12.82
2023-02-28T06:48:54.907Z,14.15
2023-02-28T06:50:31.945Z,16.60
2023-02-28T06:52:11.492Z,13.85
2023-02-28T06:53:50.759Z,14.85
2023-02-28T06:55:23.060Z,12.90
2023-02-28T06:56:57.931Z,13.55
2023-02-28T06:58:29.939Z,15.30
2023-02-28T07:00:03.493Z,14.07
2023-02-28T07:01:39.981Z,13.57
2023-02-28T07:03:12.175Z,14.65
2023-02-28T07:04:50.011Z,14.55
2023-02-28T07:06:25.576Z,13.52
2023-02-28T07:07:58.168Z,13.45
2023-02-28T07:09:31.118Z,13.98
2023-02-28T07:11:03.230Z,13.52
2023-02-28T07:12:35.074Z,13.70
2023-02-28T07:14:06.886Z,14.27
2023-02-28T07:16:13.786Z,14.32
2023-02-28T07:17:47.298Z,13.88
2023-02-28T07:19:19.229Z,13.90
2023-02-28T07:20:51.078Z,13.13
2023-02-28T07:22:26.228Z,14.57
2023-02-28T07:23:58.854Z,15.88
2023-02-28T07:25:30.697Z,14.73
2023-02-28T07:27:11.548Z,14.73
2023-02-28T07:28:46.142Z,14.05
2023-02-28T07:30:20.965Z,13.30
2023-02-28T07:31:55.572Z,14.70
2023-02-28T07:33:29.031Z,15.07
2023-02-28T07:35:09.088Z,14.70
2023-02-28T07:36:41.082Z,14.13
2023-02-28T07:38:20.648Z,14.70
2023-02-28T07:40:06.613Z,13.63
2023-02-28T07:41:45.552Z,14.27
2023-02-28T07:43:36.496Z,21.85
2023-02-28T07:45:16.744Z,16.90
2023-02-28T07:46:48.791Z,13.25
2023-02-28T07:48:28.258Z,15.13
2023-02-28T07:50:11.495Z,14.82
2023-02-28T07:51:46.069Z,13.80
2023-02-28T07:53:18.183Z,13.32
2023-02-28T07:54:50.143Z,12.98
2023-02-28T07:56:22.014Z,13.93
2023-02-28T07:57:54.047Z,13.90
2023-02-28T07:59:32.420Z,14.73
2023-02-28T08:01:09.696Z,14.65
2023-02-28T08:02:44.136Z,14.18
2023-02-28T08:04:18.577Z,15.52
2023-02-28T08:05:59.758Z,17.15
2023-02-28T08:07:33.947Z,16.40
2023-02-28T08:09:05.917Z,16.75
2023-02-28T08:10:40.031Z,14.90
2023-02-28T08:12:11.998Z,14.77
2023-02-28T08:13:45.100Z,14.30
2023-02-28T08:15:20.070Z,14.45
2023-02-28T08:16:51.812Z,13.93
2023-02-28T08:18:23.773Z,13.63
2023-02-28T08:19:55.537Z,13.70
2023-02-28T08:21:29.040Z,15.30
2023-02-28T08:23:01.001Z,15.38
2023-02-28T08:24:32.732Z,16.48
2023-02-28T08:26:04.861Z,20.83
2023-02-28T08:27:36.644Z,23.63
2023-02-28T08:29:08.379Z,18.15
2023-02-28T08:30:41.966Z,15.77
2023-02-28T08:32:28.502Z,15.52
2023-02-28T08:34:00.691Z,14.05
2023-02-28T08:35:32.434Z,13.90
2023-02-28T08:37:07.936Z,15.23
2023-02-28T08:38:39.774Z,13.32
2023-02-28T08:40:19.943Z,13.77
2023-02-28T08:42:07.225Z,14.25
2023-02-28T08:43:51.981Z,14.70
2023-02-28T08:45:26.624Z,14.82
2023-02-28T08:47:05.866Z,15.18
2023-02-28T08:48:38.973Z,16.13
2023-02-28T08:50:28.570Z,15.05
2023-02-28T08:52:00.297Z,14.80
2023-02-28T08:53:33.476Z,15.02
2023-02-28T08:55:05.877Z,15.57
2023-02-28T08:56:37.597Z,14.10
2023-02-28T08:58:09.321Z,14.18
2023-02-28T08:59:41.133Z,14.60
2023-02-28T09:01:13.811Z,15.57
2023-02-28T09:02:45.596Z,15.70
2023-02-28T09:04:19.848Z,18.67
2023-02-28T09:05:56.349Z,13.95
2023-02-28T09:07:28.146Z,13.98
2023-02-28T09:09:02.158Z,14.45
2023-02-28T09:10:34.075Z,14.30
2023-02-28T09:12:06.061Z,15.75
2023-02-28T09:13:37.966Z,13.38
2023-02-28T09:15:10.884Z,13.77
2023-02-28T09:16:44.221Z,20.13
2023-02-28T09:18:16.137Z,17.77
2023-02-28T09:19:48.888Z,16.77
2023-02-28T09:21:20.713Z,20.35
2023-02-28T09:22:54.820Z,19.55
2023-02-28T09:24:28.063Z,17.73
2023-02-28T09:25:59.809Z,20.17
2023-02-28T09:27:31.591Z,15.88
2023-02-28T09:29:03.691Z,15.32
2023-02-28T09:30:35.511Z,16.35
2023-02-28T09:32:07.450Z,16.00
2023-02-28T09:33:39.274Z,16.60
2023-02-28T09:35:15.523Z,14.75
2023-02-28T09:36:48.344Z,15.35
2023-02-28T09:38:20.888Z,17.27
2023-02-28T09:39:54.267Z,16.20
2023-02-28T09:41:29.364Z,17.63
2023-02-28T09:43:01.305Z,16.02
2023-02-28T09:44:34.980Z,15.88
2023-02-28T09:46:16.855Z,15.00
2023-02-28T09:47:53.926Z,15.73
2023-02-28T09:49:27.037Z,16.42
2023-02-28T09:51:02.119Z,14.93
2023-02-28T09:52:35.186Z,15.30
2023-02-28T09:54:07.113Z,17.45
2023-02-28T09:55:46.529Z,14.32
2023-02-28T09:57:20.719Z,15.50
2023-02-28T09:58:57.035Z,14.90
2023-02-28T10:00:40.602Z,16.10
2023-02-28T10:02:30.008Z,16.85
2023-02-28T10:04:04.200Z,15.55
2023-02-28T10:05:56.786Z,16.65
2023-02-28T10:07:44.166Z,15.60
2023-02-28T10:09:34.884Z,14.88
2023-02-28T10:11:24.046Z,16.02
2023-02-28T10:13:10.352Z,14.88
2023-02-28T10:14:48.116Z,15.98
2023-02-28T10:16:33.742Z,15.25
2023-02-28T10:18:09.099Z,15.73
2023-02-28T10:19:44.063Z,16.25
2023-02-28T10:21:44.199Z,17.30
2023-02-28T10:23:24.205Z,19.10
2023-02-28T10:25:05.086Z,17.70
2023-02-28T10:27:06.996Z,17.00
2023-02-28T10:28:58.027Z,17.60
2023-02-28T10:30:31.348Z,16.00
2023-02-28T10:32:05.976Z,16.52
2023-02-28T10:33:38.142Z,21.10
2023-02-28T10:35:17.489Z,18.27
2023-02-28T10:37:10.590Z,16.38
2023-02-28T10:38:55.881Z,16.88
2023-02-28T10:40:39.109Z,17.58
2023-02-28T10:42:28.150Z,17.75
2023-02-28T10:44:32.662Z,17.13
2023-02-28T10:46:05.494Z,18.02
2023-02-28T10:47:46.222Z,21.52
2023-02-28T10:49:22.035Z,14.75
2023-02-28T10:51:02.145Z,15.30
2023-02-28T10:52:45.822Z,16.77
2023-02-28T10:54:45.803Z,17.65
2023-02-28T10:56:32.675Z,17.38
2023-02-28T10:58:23.159Z,21.20
2023-02-28T11:00:19.902Z,17.08
2023-02-28T11:01:55.484Z,17.20
2023-02-28T11:03:32.981Z,17.45
2023-02-28T11:05:29.271Z,18.50
2023-02-28T11:07:06.595Z,17.10
2023-02-28T11:08:49.823Z,16.80
2023-02-28T11:10:51.987Z,16.67
2023-02-28T11:12:29.675Z,15.23
2023-02-28T11:14:20.168Z,17.73
2023-02-28T11:15:59.515Z,17.52
2023-02-28T11:17:41.608Z,33.10
2023-02-28T11:19:24.350Z,34.67
2023-02-28T11:21:02.610Z,26.52
2023-02-28T11:22:39.302Z,18.77
2023-02-28T11:24:24.316Z,19.13
2023-02-28T11:26:03.527Z,18.23
2023-02-28T11:28:54.218Z,17.92
2023-02-28T11:30:09.336Z,18.30
2023-02-28T11:32:25.486Z,16.35
2023-02-28T11:34:51.574Z,17.85
2023-02-28T11:36:45.941Z,18.85
2023-02-28T11:38:23.622Z,19.25
2023-02-28T11:40:10.176Z,17.38
2023-02-28T11:46:14.515Z,20.27
2023-02-28T11:47:58.557Z,19.10
2023-02-28T11:49:46.082Z,17.70
2023-02-28T11:51:43.450Z,17.35
2023-02-28T11:58:21.137Z,17.38
2023-02-28T12:00:21.757Z,16.63
2023-02-28T12:02:22.269Z,17.98
2023-02-28T12:03:59.727Z,18.10
2023-02-28T12:05:47.162Z,22.02
2023-02-28T12:07:23.441Z,23.73
2023-02-28T12:09:02.591Z,19.63
2023-02-28T12:10:43.905Z,17.63
2023-02-28T12:12:39.075Z,17.75
2023-02-28T12:14:32.337Z,18.77
2023-02-28T12:16:23.992Z,19.80
2023-02-28T12:18:08.901Z,27.48
2023-02-28T12:19:47.519Z,57.53
2023-02-28T12:21:25.571Z,25.92
2023-02-28T12:23:19.321Z,40.55
2023-02-28T12:25:22.201Z,31.77
2023-02-28T12:26:57.732Z,20.48
2023-02-28T12:28:34.532Z,20.15
2023-02-28T12:30:09.740Z,39.42
2023-02-28T12:31:43.257Z,25.27
2023-02-28T12:35:35.154Z,18.33
2023-02-28T12:37:14.103Z,21.90
2023-02-28T12:38:47.174Z,21.33
2023-02-28T12:40:24.289Z,20.58
2023-02-28T12:42:06.272Z,18.90
2023-02-28T12:44:05.098Z,22.85
2023-02-28T12:45:49.664Z,20.35
2023-02-28T12:47:26.491Z,18.73
2023-02-28T12:49:00.699Z,20.05
2023-02-28T12:50:46.310Z,20.40
2023-02-28T12:52:49.770Z,22.25
2023-02-28T12:56:27.358Z,22.45
2023-02-28T12:58:05.632Z,19.33
2023-02-28T12:59:41.433Z,25.00
2023-02-28T13:01:37.783Z,23.15
2023-02-28T13:03:46.647Z,22.60
2023-02-28T13:05:37.852Z,20.52
2023-02-28T13:07:36.132Z,21.65
2023-02-28T13:09:17.522Z,22.38
2023-02-28T13:10:55.262Z,21.25
2023-02-28T13:12:32.230Z,20.90
2023-02-28T13:15:56.383Z,20.45
2023-02-28T13:16:13.659Z,22.00
2023-02-28T13:17:45.463Z,20.48
2023-02-28T13:19:17.502Z,21.50
2023-02-28T13:20:51.413Z,21.35
2023-02-28T13:22:43.805Z,21.67
2023-02-28T13:24:43.543Z,19.90
2023-02-28T13:26:15.975Z,19.30
2023-02-28T13:27:51.674Z,20.67
2023-02-28T13:29:30.474Z,20.60
2023-02-28T13:31:06.063Z,22.30
2023-02-28T13:32:40.463Z,20.73
2023-02-28T13:34:16.566Z,20.27
2023-02-28T13:35:48.563Z,20.58
2023-02-28T13:37:39.376Z,21.35
2023-02-28T13:39:54.264Z,20.40
2023-02-28T13:42:12.149Z,22.20
2023-02-28T13:44:07.437Z,20.15
2023-02-28T13:45:40.731Z,20.83
2023-02-28T13:47:23.343Z,19.50
2023-02-28T13:48:55.312Z,22.17
2023-02-28T13:50:32.268Z,22.17
2023-02-28T13:52:07.995Z,24.08
2023-02-28T13:53:50.539Z,19.13
2023-02-28T13:55:28.525Z,20.70
2023-02-28T13:57:11.004Z,19.77
2023-02-28T13:58:47.539Z,21.98
2023-02-28T14:00:24.526Z,22.90
2023-02-28T14:02:04.487Z,20.85
2023-02-28T14:03:46.976Z,22.80
2023-02-28T14:05:23.777Z,22.20
2023-02-28T14:06:56.035Z,30.52
2023-02-28T14:08:28.120Z,27.63
2023-02-28T14:10:06.469Z,22.20
2023-02-28T14:11:40.701Z,22.65
2023-02-28T14:13:15.373Z,22.88
2023-02-28T14:14:56.681Z,21.63
2023-02-28T14:16:31.021Z,23.52
2023-02-28T14:18:03.787Z,24.75
2023-02-28T14:19:36.077Z,23.58
2023-02-28T14:21:17.756Z,21.13
2023-02-28T14:22:54.852Z,26.67
2023-02-28T14:24:48.834Z,38.55
2023-02-28T14:26:30.664Z,30.65
2023-02-28T14:28:11.786Z,25.67
2023-02-28T14:30:14.942Z,24.38
2023-02-28T14:31:48.628Z,23.95
2023-02-28T14:33:25.034Z,23.80
2023-02-28T14:36:37.114Z,25.83
2023-02-28T14:38:14.688Z,23.48
2023-02-28T14:39:46.342Z,24.55
2023-02-28T14:41:21.520Z,24.42
2023-02-28T14:42:56.751Z,23.17
2023-02-28T14:44:29.741Z,22.83
2023-02-28T14:46:02.612Z,27.88
2023-02-28T14:47:34.952Z,24.23
2023-02-28T14:49:08.138Z,27.17
2023-02-28T14:50:39.800Z,24.83
2023-02-28T14:52:16.009Z,27.13
2023-02-28T14:53:48.788Z,26.98
2023-02-28T14:55:21.009Z,24.42
2023-02-28T14:56:52.633Z,25.85
2023-02-28T14:58:26.269Z,25.58
2023-02-28T15:00:00.719Z,24.77
2023-02-28T15:01:35.622Z,25.85
2023-02-28T15:03:19.278Z,26.20
2023-02-28T15:06:46.954Z,41.55
2023-02-28T15:08:19.011Z,29.08
2023-02-28T15:09:50.753Z,27.80
2023-02-28T15:11:25.617Z,28.70
2023-02-28T15:12:59.041Z,25.00
2023-02-28T15:14:30.941Z,28.60
2023-02-28T15:16:04.864Z,37.08
2023-02-28T15:17:36.669Z,36.20
2023-02-28T15:19:12.595Z,28.83
2023-02-28T15:20:48.774Z,33.25
2023-02-28T15:22:22.382Z,31.58
2023-02-28T15:23:55.747Z,27.67
2023-02-28T15:25:27.488Z,31.13
2023-02-28T15:27:00.688Z,27.77
2023-02-28T15:28:34.333Z,31.67
2023-02-28T15:30:07.693Z,28.50
2023-02-28T15:31:57.514Z,27.20
2023-02-28T15:33:34.937Z,27.13
2023-02-28T15:35:20.522Z,26.90
2023-02-28T15:36:52.134Z,29.80
2023-02-28T15:38:25.772Z,32.45
2023-02-28T15:40:00.193Z,31.15
2023-02-28T15:41:36.369Z,34.47
2023-02-28T15:43:15.218Z,29.65
2023-02-28T15:44:47.063Z,34.95
2023-02-28T15:46:18.734Z,36.28
2023-02-28T15:47:52.710Z,59.35
2023-02-28T15:49:25.364Z,39.40
2023-02-28T15:50:57.900Z,34.78
2023-02-28T15:52:32.699Z,37.08
2023-02-28T15:54:06.375Z,48.65
2023-02-28T15:55:40.891Z,32.63
2023-02-28T15:57:15.016Z,28.52
2023-02-28T15:58:48.755Z,26.27
2023-02-28T16:00:25.093Z,26.98
2023-02-28T16:02:15.361Z,24.48
2023-02-28T16:03:52.604Z,25.00
2023-02-28T16:05:32.864Z,26.45
2023-02-28T16:07:09.191Z,26.48
2023-02-28T16:08:40.998Z,24.48
2023-02-28T16:10:15.128Z,23.70
2023-02-28T16:11:48.099Z,24.85
2023-02-28T16:13:19.877Z,25.55
2023-02-28T16:14:53.674Z,24.08
2023-02-28T16:16:25.763Z,23.70
2023-02-28T16:17:57.886Z,24.88
2023-02-28T16:19:33.763Z,27.58
2023-02-28T16:21:09.844Z,25.58
2023-02-28T16:22:44.145Z,27.25
2023-02-28T16:24:23.216Z,26.50
2023-02-28T16:25:54.941Z,26.02
2023-02-28T16:27:36.372Z,24.80
2023-02-28T16:29:11.458Z,24.23
2023-02-28T16:30:43.115Z,23.90
2023-02-28T16:32:15.660Z,24.52
2023-02-28T16:33:48.036Z,25.92
2023-02-28T16:35:21.472Z,25.52
2023-02-28T16:36:55.996Z,26.00
2023-02-28T16:38:27.738Z,24.10
2023-02-28T16:39:59.479Z,25.30
2023-02-28T16:41:34.034Z,25.65
2023-02-28T16:43:06.774Z,23.80
2023-02-28T16:44:38.601Z,23.48
2023-02-28T16:46:11.477Z,24.42
2023-02-28T16:47:43.206Z,24.05
2023-02-28T16:49:15.235Z,25.13
2023-02-28T16:50:50.825Z,26.58
2023-02-28T16:52:22.589Z,25.52
2023-02-28T16:53:54.619Z,24.80
2023-02-28T16:55:28.974Z,22.92
2023-02-28T16:57:00.912Z,23.23
2023-02-28T16:58:32.865Z,25.80
2023-02-28T17:00:05.467Z,25.75
2023-02-28T17:01:37.300Z,22.55
2023-02-28T17:03:12.869Z,24.30
2023-02-28T17:04:44.705Z,26.98
2023-02-28T17:06:22.775Z,25.83
2023-02-28T17:07:54.557Z,24.33
2023-02-28T17:09:36.751Z,26.85
2023-02-28T17:11:13.256Z,23.75
2023-02-28T17:12:47.248Z,26.80
2023-02-28T17:14:18.959Z,26.60
2023-02-28T17:15:51.028Z,41.53
2023-02-28T17:17:22.877Z,35.10
2023-02-28T17:18:54.691Z,28.98
2023-02-28T17:20:27.493Z,28.48
2023-02-28T17:22:00.633Z,28.42
2023-02-28T17:23:34.569Z,27.05
2023-02-28T17:25:07.506Z,25.02
2023-02-28T17:26:39.414Z,28.65
2023-02-28T17:28:11.257Z,25.15
2023-02-28T17:29:43.214Z,24.77
2023-02-28T17:31:15.245Z,28.70
2023-02-28T17:32:47.024Z,31.67
2023-02-28T17:34:21.375Z,29.05
2023-02-28T17:35:53.181Z,28.10
2023-02-28T17:37:26.412Z,28.33
2023-02-28T17:38:59.515Z,26.40
2023-02-28T17:40:31.788Z,25.67
2023-02-28T17:42:03.802Z,26.13
2023-02-28T17:43:35.541Z,26.05
2023-02-28T17:45:10.742Z,26.65
2023-02-28T17:46:42.538Z,28.00
2023-02-28T17:48:14.495Z,26.48
2023-02-28T17:49:46.193Z,27.08
2023-02-28T17:51:18.285Z,25.80
2023-02-28T17:52:51.597Z,27.73
2023-02-28T17:54:23.394Z,24.25
2023-02-28T17:55:55.102Z,28.50
2023-02-28T17:57:26.905Z,28.02
2023-02-28T17:58:59.426Z,26.75
2023-02-28T18:00:33.618Z,26.40
2023-02-28T18:02:05.455Z,27.20
2023-02-28T18:03:37.399Z,24.05
2023-02-28T18:05:09.766Z,30.75
2023-02-28T18:06:51.372Z,28.17
2023-02-28T18:08:25.405Z,32.45
2023-02-28T18:09:57.155Z,35.40
2023-02-28T18:11:44.831Z,50.63
2023-02-28T18:13:16.630Z,42.95
2023-02-28T18:14:48.837Z,37.60
2023-02-28T18:16:21.915Z,37.67
2023-02-28T18:17:53.782Z,40.33
2023-02-28T18:19:25.920Z,38.25
2023-02-28T18:20:57.722Z,49.63
2023-02-28T18:22:33.001Z,41.85
2023-02-28T18:24:06.773Z,48.47
2023-02-28T18:25:42.674Z,38.22
2023-02-28T18:27:14.405Z,36.58
2023-02-28T18:28:46.356Z,34.75
2023-02-28T18:30:18.842Z,31.90
2023-02-28T18:31:50.870Z,34.85
2023-02-28T18:33:22.883Z,38.20
2023-02-28T18:34:54.761Z,42.90
2023-02-28T18:36:26.934Z,39.05
2023-02-28T18:37:59.031Z,39.88
2023-02-28T18:39:32.483Z,38.90
2023-02-28T18:41:05.033Z,30.98
2023-02-28T18:42:36.931Z,30.33
2023-02-28T18:44:19.761Z,29.23
2023-02-28T18:45:52.172Z,26.38
2023-02-28T18:47:23.982Z,28.25
2023-02-28T18:48:56.019Z,28.77
2023-02-28T18:50:27.806Z,28.02
2023-02-28T18:51:59.583Z,52.75
2023-02-28T18:53:31.432Z,53.30
2023-02-28T18:55:08.349Z,52.80
2023-02-28T18:56:40.202Z,45.40
2023-02-28T18:58:11.927Z,30.02
2023-02-28T18:59:43.793Z,31.85
2023-02-28T19:01:16.735Z,30.75
2023-02-28T19:02:49.455Z,29.52
2023-02-28T19:04:21.384Z,31.42
2023-02-28T19:05:55.105Z,30.27
2023-02-28T19:07:26.876Z,29.05
2023-02-28T19:08:59.636Z,31.10
2023-02-28T19:10:33.741Z,29.95
2023-02-28T19:12:05.485Z,29.30
2023-02-28T19:13:37.712Z,27.88
2023-02-28T19:15:09.960Z,30.73
2023-02-28T19:16:41.942Z,28.02
2023-02-28T19:18:13.780Z,31.88
2023-02-28T19:19:45.582Z,28.65
2023-02-28T19:21:18.208Z,30.73
2023-02-28T19:22:50.034Z,29.30
2023-02-28T19:24:21.778Z,30.77
2023-02-28T19:25:59.362Z,29.20
2023-02-28T19:27:31.162Z,32.38
2023-02-28T19:29:08.158Z,35.05
2023-02-28T19:30:40.650Z,33.03
2023-02-28T19:32:17.673Z,30.85
2023-02-28T19:34:03.221Z,30.33
2023-02-28T19:35:35.128Z,30.38
2023-02-28T19:37:06.916Z,30.17
2023-02-28T19:38:38.804Z,32.08
2023-02-28T19:40:13.930Z,30.35
2023-02-28T19:41:47.077Z,29.10
2023-02-28T19:44:05.159Z,34.88
2023-02-28T19:45:37.255Z,29.55
2023-02-28T19:47:11.154Z,32.78
2023-02-28T19:48:47.456Z,29.90
2023-02-28T19:50:19.957Z,31.23
2023-02-28T19:51:53.016Z,30.13
2023-02-28T19:53:25.162Z,31.42
2023-02-28T19:55:15.925Z,29.55
2023-02-28T19:57:10.361Z,30.73
2023-02-28T19:59:01.088Z,32.70
2023-02-28T20:00:37.519Z,29.67
2023-02-28T20:02:21.576Z,32.03
2023-02-28T20:03:53.479Z,33.53
2023-02-28T20:05:50.793Z,37.75
2023-02-28T20:07:33.302Z,34.45
2023-02-28T20:09:05.325Z,34.28
2023-02-28T20:10:39.526Z,35.17
2023-02-28T20:12:24.214Z,30.55
2023-02-28T20:14:11.834Z,31.38
2023-02-28T20:15:43.814Z,33.17
2023-02-28T20:17:15.985Z,30.98
2023-02-28T20:18:54.161Z,29.40
2023-02-28T20:20:28.529Z,28.73
2023-02-28T20:22:12.865Z,32.80
2023-02-28T20:23:45.342Z,30.98
2023-02-28T20:25:20.531Z,31.80
2023-02-28T20:26:53.876Z,29.33
2023-02-28T20:28:31.721Z,36.50
2023-02-28T20:30:06.709Z,33.58
2023-02-28T20:31:38.810Z,33.00
2023-02-28T20:33:11.619Z,36.13
2023-02-28T20:34:46.213Z,35.33
2023-02-28T20:36:20.761Z,33.63
2023-02-28T20:37:53.307Z,34.25
2023-02-28T20:39:25.394Z,32.17
2023-02-28T20:40:58.932Z,30.25
2023-02-28T20:42:34.263Z,31.02
2023-02-28T20:44:07.725Z,31.63
2023-02-28T20:45:53.435Z,36.83
2023-02-28T20:47:28.138Z,33.67
2023-02-28T20:49:03.067Z,30.45
2023-02-28T20:50:38.478Z,32.67
2023-02-28T20:54:00.635Z,30.10
2023-02-28T20:55:38.970Z,32.40
2023-02-28T20:57:11.017Z,32.25
2023-02-28T20:58:49.499Z,30.63
2023-02-28T21:00:24.149Z,32.65
2023-02-28T21:02:00.589Z,32.47
2023-02-28T21:03:32.670Z,31.25
2023-02-28T21:05:11.867Z,31.15
2023-02-28T21:06:46.429Z,29.88
2023-02-28T21:08:18.421Z,32.53
2023-02-28T21:09:50.354Z,31.55
2023-02-28T21:11:24.149Z,33.30
2023-02-28T21:12:57.953Z,34.20
2023-02-28T21:14:32.217Z,41.65
2023-02-28T21:16:08.575Z,33.58
2023-02-28T21:17:41.817Z,34.33
2023-02-28T21:19:23.619Z,38.10